createdAt,value
2023-05-15T00:00:10.907Z,33.80
2023-05-15T00:00:33.646Z,33.80
2023-05-15T00:00:57.074Z,33.90
2023-05-15T00:01:20.462Z,33.90
2023-05-15T00:01:43.540Z,33.90
2023-05-15T00:02:06.474Z,33.70
2023-05-15T00:02:29.341Z,33.60
2023-05-15T00:02:52.340Z,33.90
2023-05-15T00:03:16.484Z,34.10
2023-05-15T00:03:39.548Z,34.00
2023-05-15T00:04:02.471Z,33.80
2023-05-15T00:04:25.533Z,33.70
2023-05-15T00:04:48.666Z,33.60
2023-05-15T00:05:12.463Z,33.60
2023-05-15T00:05:35.763Z,33.60
2023-05-15T00:05:58.617Z,33.70
2023-05-15T00:06:23.534Z,33.90
2023-05-15T00:06:47.807Z,34.10
2023-05-15T00:07:10.669Z,34.10
2023-05-15T00:07:33.513Z,34.10
2023-05-15T00:07:56.267Z,34.10
2023-05-15T00:08:19.119Z,34.20
2023-05-15T00:08:42.031Z,34.30
2023-05-15T00:09:04.801Z,34.20
2023-05-15T00:09:27.520Z,34.10
2023-05-15T00:09:50.408Z,34.10
2023-05-15T00:10:13.160Z,34.10
2023-05-15T00:10:36.005Z,34.20
2023-05-15T00:11:02.037Z,34.20
2023-05-15T00:11:27.935Z,34.20
2023-05-15T00:11:51.562Z,34.30
2023-05-15T00:12:14.309Z,34.30
2023-05-15T00:12:37.223Z,34.20
2023-05-15T00:13:00.035Z,34.20
2023-05-15T00:13:22.889Z,34.30
2023-05-15T00:13:45.624Z,34.50
2023-05-15T00:14:08.320Z,34.40
2023-05-15T00:14:31.099Z,34.30
2023-05-15T00:14:53.935Z,34.30
2023-05-15T00:15:16.908Z,34.30
2023-05-15T00:15:39.664Z,34.30
2023-05-15T00:16:02.436Z,34.40
2023-05-15T00:16:25.181Z,34.40
2023-05-15T00:16:48.059Z,34.40
2023-05-15T00:17:11.222Z,34.40
2023-05-15T00:17:34.031Z,34.50
2023-05-15T00:17:56.861Z,34.50
2023-05-15T00:18:19.677Z,34.40
2023-05-15T00:18:42.473Z,34.30
2023-05-15T00:19:05.289Z,34.10
2023-05-15T00:19:28.238Z,34.30
2023-05-15T00:19:51.091Z,34.30
2023-05-15T00:20:14.000Z,34.40
2023-05-15T00:20:36.684Z,34.30
2023-05-15T00:20:59.440Z,34.30
2023-05-15T00:21:22.360Z,34.50
2023-05-15T00:21:45.131Z,34.60
2023-05-15T00:22:09.442Z,34.70
2023-05-15T00:22:32.206Z,34.70
2023-05-15T00:22:55.320Z,34.60
2023-05-15T00:23:18.012Z,34.70
2023-05-15T00:23:40.806Z,34.70
2023-05-15T00:24:03.759Z,34.70
2023-05-15T00:24:26.458Z,34.80
2023-05-15T00:24:49.364Z,34.70
2023-05-15T00:25:12.160Z,34.70
2023-05-15T00:25:34.998Z,34.70
2023-05-15T00:25:57.840Z,34.70
2023-05-15T00:26:20.981Z,34.70
2023-05-15T00:26:43.801Z,34.80
2023-05-15T00:27:06.824Z,34.70
2023-05-15T00:27:29.641Z,35.40
2023-05-15T00:27:52.420Z,34.90
2023-05-15T00:28:15.524Z,35.00
2023-05-15T00:28:38.302Z,35.00
2023-05-15T00:29:01.115Z,35.10
2023-05-15T00:29:24.127Z,35.10
2023-05-15T00:29:47.000Z,35.00
2023-05-15T00:30:11.492Z,34.90
2023-05-15T00:30:34.365Z,35.00
2023-05-15T00:30:57.199Z,35.00
2023-05-15T00:31:20.145Z,35.10
2023-05-15T00:31:42.969Z,35.10
2023-05-15T00:32:06.632Z,35.20
2023-05-15T00:32:29.470Z,35.20
2023-05-15T00:32:52.547Z,35.30
2023-05-15T00:33:15.802Z,35.20
2023-05-15T00:33:39.098Z,35.10
2023-05-15T00:34:01.938Z,35.10
2023-05-15T00:34:25.322Z,35.10
2023-05-15T00:34:48.148Z,35.10
2023-05-15T00:35:11.055Z,35.10
2023-05-15T00:35:33.822Z,35.20
2023-05-15T00:35:56.675Z,35.20
2023-05-15T00:36:21.944Z,35.30
2023-05-15T00:36:44.758Z,35.30
2023-05-15T00:37:09.045Z,35.40
2023-05-15T00:37:31.696Z,35.50
2023-05-15T00:37:54.414Z,35.60
2023-05-15T00:38:17.256Z,35.60
2023-05-15T00:38:40.906Z,35.70
2023-05-15T00:39:03.843Z,35.70
2023-05-15T00:39:26.554Z,35.40
2023-05-15T00:39:49.319Z,35.80
2023-05-15T00:40:13.459Z,35.90
2023-05-15T00:40:36.406Z,36.00
2023-05-15T00:40:59.386Z,36.10
2023-05-15T00:41:23.034Z,36.10
2023-05-15T00:41:46.094Z,36.20
2023-05-15T00:42:08.997Z,35.90
2023-05-15T00:42:31.784Z,36.00
2023-05-15T00:42:54.893Z,35.80
2023-05-15T00:43:17.638Z,35.70
2023-05-15T00:43:40.908Z,35.60
2023-05-15T00:44:04.013Z,35.70
2023-05-15T00:44:30.245Z,35.70
2023-05-15T00:44:53.291Z,35.80
2023-05-15T00:45:16.061Z,35.70
2023-05-15T00:45:40.756Z,35.70
2023-05-15T00:46:03.517Z,35.60
2023-05-15T00:46:26.473Z,35.70
2023-05-15T00:46:49.775Z,35.60
2023-05-15T00:47:12.698Z,35.80
2023-05-15T00:47:35.585Z,35.80
2023-05-15T00:47:59.308Z,35.70
2023-05-15T00:48:23.207Z,35.60
2023-05-15T00:48:45.999Z,35.60
2023-05-15T00:49:13.519Z,35.70
2023-05-15T00:49:37.471Z,35.60
2023-05-15T00:50:00.274Z,35.60
2023-05-15T00:50:23.163Z,35.60
2023-05-15T00:50:49.158Z,35.70
2023-05-15T00:51:12.161Z,35.70
2023-05-15T00:51:34.961Z,35.70
2023-05-15T00:51:58.346Z,35.80
2023-05-15T00:52:22.721Z,35.90
2023-05-15T00:52:45.586Z,35.60
2023-05-15T00:53:08.408Z,35.70
2023-05-15T00:53:31.239Z,35.90
2023-05-15T00:53:55.416Z,36.00
2023-05-15T00:54:18.219Z,36.10
2023-05-15T00:54:41.129Z,35.80
2023-05-15T00:55:04.144Z,35.50
2023-05-15T00:55:27.142Z,35.40
2023-05-15T00:55:50.122Z,35.60
2023-05-15T00:56:13.010Z,35.60
2023-05-15T00:56:35.824Z,35.30
2023-05-15T00:56:58.742Z,35.20
2023-05-15T00:57:21.506Z,35.00
2023-05-15T00:57:44.513Z,35.00
2023-05-15T00:58:07.698Z,35.10
2023-05-15T00:58:30.577Z,35.00
2023-05-15T00:58:53.297Z,34.70
2023-05-15T00:59:16.105Z,34.50
2023-05-15T00:59:39.362Z,34.50
2023-05-15T01:00:04.665Z,34.20
2023-05-15T01:00:27.366Z,34.10
2023-05-15T01:00:51.146Z,34.00
2023-05-15T01:01:14.497Z,34.10
2023-05-15T01:01:37.862Z,34.10
2023-05-15T01:02:00.883Z,34.20
2023-05-15T01:02:23.768Z,34.10
2023-05-15T01:02:47.294Z,33.80
2023-05-15T01:03:10.628Z,33.70
2023-05-15T01:03:33.672Z,33.60
2023-05-15T01:03:56.426Z,33.60
2023-05-15T01:04:19.371Z,33.80
2023-05-15T01:04:42.121Z,34.00
2023-05-15T01:05:07.529Z,34.30
2023-05-15T01:05:30.536Z,34.20
2023-05-15T01:05:53.387Z,33.60
2023-05-15T01:06:16.264Z,33.20
2023-05-15T01:06:39.051Z,33.10
2023-05-15T01:07:02.963Z,33.10
2023-05-15T01:07:30.427Z,33.40
2023-05-15T01:07:57.629Z,33.50
2023-05-15T01:08:22.152Z,34.10
2023-05-15T01:08:46.152Z,33.30
2023-05-15T01:09:08.985Z,33.20
2023-05-15T01:09:31.877Z,33.10
2023-05-15T01:09:54.720Z,33.20
2023-05-15T01:10:17.481Z,32.70
2023-05-15T01:10:40.246Z,32.60
2023-05-15T01:11:03.171Z,31.80
2023-05-15T01:11:27.532Z,31.80
2023-05-15T01:11:51.121Z,31.50
2023-05-15T01:12:15.862Z,30.60
2023-05-15T01:12:38.778Z,30.70
2023-05-15T01:13:01.603Z,30.90
2023-05-15T01:13:24.851Z,30.40
2023-05-15T01:13:50.064Z,30.00
2023-05-15T01:14:12.980Z,29.70
2023-05-15T01:14:35.935Z,29.80
2023-05-15T01:14:58.732Z,30.00
2023-05-15T01:15:21.511Z,30.60
2023-05-15T01:15:44.458Z,29.90
2023-05-15T01:16:07.425Z,29.10
2023-05-15T01:16:30.251Z,28.90
2023-05-15T01:16:55.221Z,28.30
2023-05-15T01:17:18.082Z,28.30
2023-05-15T01:17:40.851Z,28.00
2023-05-15T01:18:03.937Z,28.00
2023-05-15T01:18:32.643Z,28.40
2023-05-15T01:18:55.643Z,28.70
2023-05-15T01:19:18.662Z,28.80
2023-05-15T01:19:41.793Z,29.40
2023-05-15T01:20:06.572Z,29.60
2023-05-15T01:20:29.512Z,29.50
2023-05-15T01:21:10.464Z,29.70
2023-05-15T01:22:08.892Z,29.80
2023-05-15T01:22:47.208Z,30.90
2023-05-15T01:23:12.491Z,31.10
2023-05-15T01:23:43.790Z,30.70
2023-05-15T01:24:18.726Z,31.00
2023-05-15T01:24:59.657Z,30.60
2023-05-15T01:25:46.168Z,30.90
2023-05-15T01:26:35.730Z,31.00
2023-05-15T01:27:19.541Z,31.20
2023-05-15T01:27:42.971Z,31.30
2023-05-15T01:28:07.468Z,31.50
2023-05-15T01:28:32.325Z,31.40
2023-05-15T01:28:58.310Z,30.90
2023-05-15T01:29:25.141Z,30.80
2023-05-15T01:29:54.710Z,31.20
2023-05-15T01:30:20.754Z,31.70
2023-05-15T01:30:43.848Z,31.30
2023-05-15T01:31:09.861Z,30.80
2023-05-15T01:31:32.889Z,30.20
2023-05-15T01:31:59.180Z,30.00
2023-05-15T01:32:25.504Z,30.10
2023-05-15T01:32:53.978Z,30.40
2023-05-15T01:33:21.299Z,30.50
2023-05-15T01:33:46.055Z,30.50
2023-05-15T01:34:09.115Z,30.60
2023-05-15T01:34:34.658Z,30.70
2023-05-15T01:35:02.240Z,31.10
2023-05-15T01:35:29.475Z,31.60
2023-05-15T01:35:56.226Z,31.80
2023-05-15T01:36:22.960Z,32.00
2023-05-15T01:36:48.402Z,32.10
2023-05-15T01:37:11.314Z,32.20
2023-05-15T01:37:34.243Z,32.20
2023-05-15T01:38:02.659Z,32.60
2023-05-15T01:38:29.804Z,32.90
2023-05-15T01:38:55.912Z,32.80
2023-05-15T01:39:23.389Z,32.70
2023-05-15T01:39:46.249Z,32.50
2023-05-15T01:40:09.499Z,32.50
2023-05-15T01:40:32.253Z,32.40
2023-05-15T01:40:58.229Z,32.50
2023-05-15T01:41:22.867Z,32.50
2023-05-15T01:41:47.020Z,32.50
2023-05-15T01:42:10.482Z,32.50
2023-05-15T01:42:35.410Z,32.80
2023-05-15T01:43:00.920Z,32.90
2023-05-15T01:43:24.847Z,32.60
2023-05-15T01:43:47.692Z,32.30
2023-05-15T01:44:14.388Z,32.10
2023-05-15T01:44:38.083Z,32.30
2023-05-15T01:45:02.549Z,32.70
2023-05-15T01:45:25.767Z,32.60
2023-05-15T01:45:49.105Z,32.30
2023-05-15T01:46:12.697Z,32.10
2023-05-15T01:46:37.238Z,32.40
2023-05-15T01:47:02.094Z,32.70
2023-05-15T01:47:28.661Z,32.80
2023-05-15T01:47:51.550Z,32.90
2023-05-15T01:48:14.538Z,33.10
2023-05-15T01:48:37.274Z,33.10
2023-05-15T01:49:01.698Z,33.00
2023-05-15T01:49:27.586Z,33.30
2023-05-15T01:49:50.403Z,33.50
2023-05-15T01:50:15.478Z,33.70
2023-05-15T01:50:38.287Z,33.70
2023-05-15T01:51:03.567Z,33.30
2023-05-15T01:51:26.383Z,33.30
2023-05-15T01:51:54.765Z,33.30
2023-05-15T01:52:19.293Z,33.40
2023-05-15T01:52:44.062Z,33.20
2023-05-15T01:53:06.803Z,33.30
2023-05-15T01:53:29.808Z,33.40
2023-05-15T01:53:52.585Z,33.60
2023-05-15T01:54:15.421Z,33.80
2023-05-15T01:54:38.290Z,33.90
2023-05-15T01:55:02.052Z,33.90
2023-05-15T01:55:25.182Z,33.70
2023-05-15T01:55:48.358Z,33.20
2023-05-15T01:56:14.170Z,33.30
2023-05-15T01:56:36.998Z,33.20
2023-05-15T01:56:59.762Z,32.90
2023-05-15T01:57:24.657Z,32.90
2023-05-15T01:57:49.406Z,32.90
2023-05-15T01:58:12.059Z,32.60
2023-05-15T01:58:34.889Z,31.90
2023-05-15T01:59:00.282Z,31.50
2023-05-15T01:59:23.013Z,31.40
2023-05-15T01:59:46.327Z,31.00
2023-05-15T02:00:11.096Z,31.10
2023-05-15T02:00:33.994Z,31.20
2023-05-15T02:00:59.356Z,30.90
2023-05-15T02:01:22.294Z,30.80
2023-05-15T02:01:45.180Z,30.90
2023-05-15T02:02:08.155Z,31.00
2023-05-15T02:02:31.089Z,31.00
2023-05-15T02:02:53.986Z,31.20
2023-05-15T02:03:16.872Z,31.00
2023-05-15T02:03:39.752Z,30.40
2023-05-15T02:04:02.894Z,30.20
2023-05-15T02:04:26.829Z,30.20
2023-05-15T02:04:50.250Z,30.30
2023-05-15T02:05:13.130Z,30.60
2023-05-15T02:05:36.157Z,30.50
2023-05-15T02:05:58.975Z,30.30
2023-05-15T02:06:21.740Z,30.00
2023-05-15T02:06:44.416Z,30.60
2023-05-15T02:07:07.105Z,30.90
2023-05-15T02:07:29.922Z,31.20
2023-05-15T02:07:52.687Z,31.40
2023-05-15T02:08:15.884Z,31.70
2023-05-15T02:08:38.637Z,31.90
2023-05-15T02:09:02.813Z,32.00
2023-05-15T02:09:25.604Z,32.20
2023-05-15T02:09:48.427Z,32.20
2023-05-15T02:10:11.692Z,32.10
2023-05-15T02:10:34.476Z,32.50
2023-05-15T02:10:58.093Z,32.50
2023-05-15T02:11:20.865Z,32.80
2023-05-15T02:11:43.672Z,33.00
2023-05-15T02:12:06.578Z,32.90
2023-05-15T02:12:29.333Z,32.70
2023-05-15T02:12:53.605Z,32.30
2023-05-15T02:13:17.041Z,32.30
2023-05-15T02:13:39.803Z,32.30
2023-05-15T02:14:02.804Z,32.50
2023-05-15T02:14:25.628Z,32.80
2023-05-15T02:14:49.327Z,32.90
2023-05-15T02:15:12.172Z,32.70
2023-05-15T02:15:34.887Z,32.60
2023-05-15T02:15:57.731Z,32.60
2023-05-15T02:16:20.767Z,32.70
2023-05-15T02:16:43.968Z,33.60
2023-05-15T02:17:06.748Z,33.30
2023-05-15T02:17:29.736Z,33.60
2023-05-15T02:17:52.636Z,33.50
2023-05-15T02:18:15.616Z,33.50
2023-05-15T02:18:38.413Z,33.50
2023-05-15T02:19:01.276Z,33.50
2023-05-15T02:19:24.012Z,33.60
2023-05-15T02:19:46.751Z,33.60
2023-05-15T02:20:11.716Z,33.70
2023-05-15T02:20:34.497Z,33.70
2023-05-15T02:20:57.460Z,33.80
2023-05-15T02:21:20.264Z,33.90
2023-05-15T02:21:43.016Z,34.00
2023-05-15T02:22:05.997Z,33.90
2023-05-15T02:22:28.857Z,34.00
2023-05-15T02:22:51.654Z,34.00
2023-05-15T02:23:14.562Z,34.00
2023-05-15T02:23:37.423Z,34.00
2023-05-15T02:24:00.192Z,33.90
2023-05-15T02:24:22.951Z,33.90
2023-05-15T02:24:45.698Z,34.50
2023-05-15T02:25:09.159Z,34.00
2023-05-15T02:25:37.625Z,34.10
2023-05-15T02:26:14.713Z,34.10
2023-05-15T02:26:39.828Z,34.30
2023-05-15T02:27:05.320Z,34.20
2023-05-15T02:27:28.857Z,34.30
2023-05-15T02:27:56.212Z,34.30
2023-05-15T02:28:22.847Z,34.10
2023-05-15T02:28:49.197Z,34.10
2023-05-15T02:29:14.307Z,34.10
2023-05-15T02:29:40.338Z,34.00
2023-05-15T02:30:11.284Z,34.00
2023-05-15T02:30:38.592Z,34.00
2023-05-15T02:31:04.676Z,34.60
2023-05-15T02:31:30.750Z,34.10
2023-05-15T02:31:59.419Z,34.10
2023-05-15T02:32:26.850Z,34.20
2023-05-15T02:32:54.612Z,34.30
2023-05-15T02:33:20.011Z,34.40
2023-05-15T02:33:45.994Z,34.40
2023-05-15T02:34:12.319Z,34.40
2023-05-15T02:34:38.161Z,34.50
2023-05-15T02:35:05.760Z,34.50
2023-05-15T02:35:33.611Z,34.60
2023-05-15T02:35:59.378Z,34.50
2023-05-15T02:36:27.306Z,34.40
2023-05-15T02:36:50.438Z,34.40
2023-05-15T02:37:14.772Z,34.50
2023-05-15T02:37:40.250Z,34.60
2023-05-15T02:38:06.329Z,34.50
2023-05-15T02:38:30.734Z,34.60
2023-05-15T02:38:53.827Z,34.50
2023-05-15T02:39:17.198Z,34.70
2023-05-15T02:39:40.330Z,34.80
2023-05-15T02:40:03.085Z,34.90
2023-05-15T02:40:25.844Z,35.00
2023-05-15T02:40:48.602Z,35.00
2023-05-15T02:41:11.463Z,35.00
2023-05-15T02:41:34.270Z,35.00
2023-05-15T02:41:57.276Z,35.10
2023-05-15T02:42:20.026Z,35.10
2023-05-15T02:42:42.804Z,35.00
2023-05-15T02:43:07.194Z,35.10
2023-05-15T02:43:30.088Z,35.10
2023-05-15T02:43:55.209Z,35.00
2023-05-15T02:44:18.066Z,35.10
2023-05-15T02:44:40.949Z,35.00
2023-05-15T02:45:04.001Z,35.00
2023-05-15T02:45:26.938Z,34.90
2023-05-15T02:45:50.029Z,34.90
2023-05-15T02:46:12.871Z,35.00
2023-05-15T02:46:35.768Z,35.00
2023-05-15T02:46:58.627Z,35.10
2023-05-15T02:47:21.778Z,35.10
2023-05-15T02:47:44.602Z,35.20
2023-05-15T02:48:07.632Z,35.20
2023-05-15T02:48:30.417Z,35.30
2023-05-15T02:48:53.303Z,35.20
2023-05-15T02:49:16.166Z,35.10
2023-05-15T02:49:39.469Z,35.10
2023-05-15T02:50:02.324Z,35.10
2023-05-15T02:50:25.846Z,35.20
2023-05-15T02:50:48.597Z,35.10
2023-05-15T02:51:12.346Z,35.10
2023-05-15T02:51:35.020Z,35.10
2023-05-15T02:51:57.746Z,35.30
2023-05-15T02:52:20.559Z,35.20
2023-05-15T02:52:44.028Z,35.20
2023-05-15T02:53:07.699Z,35.20
2023-05-15T02:53:30.866Z,35.20
2023-05-15T02:53:53.802Z,35.20
2023-05-15T02:54:16.639Z,35.10
2023-05-15T02:54:39.370Z,35.00
2023-05-15T02:55:02.155Z,35.20
2023-05-15T02:55:26.268Z,35.30
2023-05-15T02:55:49.429Z,35.30
2023-05-15T02:56:12.376Z,35.50
2023-05-15T02:56:35.212Z,35.40
2023-05-15T02:56:58.018Z,35.50
2023-05-15T02:57:21.089Z,35.50
2023-05-15T02:57:43.877Z,35.50
2023-05-15T02:58:08.135Z,35.40
2023-05-15T02:58:30.876Z,35.40
2023-05-15T02:58:53.606Z,35.50
2023-05-15T02:59:19.891Z,35.60
2023-05-15T02:59:42.887Z,35.70
2023-05-15T03:00:09.304Z,35.80
2023-05-15T03:00:32.060Z,35.90
2023-05-15T03:00:54.918Z,36.40
2023-05-15T03:01:17.803Z,35.90
2023-05-15T03:01:40.931Z,35.70
2023-05-15T03:02:03.931Z,35.80
2023-05-15T03:02:26.874Z,35.90
2023-05-15T03:02:49.698Z,36.00
2023-05-15T03:03:12.551Z,36.00
2023-05-15T03:03:35.574Z,35.90
2023-05-15T03:03:58.321Z,36.00
2023-05-15T03:04:21.308Z,36.40
2023-05-15T03:04:44.267Z,35.70
2023-05-15T03:05:07.888Z,35.60
2023-05-15T03:05:30.714Z,35.50
2023-05-15T03:05:53.447Z,35.40
2023-05-15T03:06:16.860Z,35.30
2023-05-15T03:06:39.673Z,35.30
2023-05-15T03:07:02.401Z,35.10
2023-05-15T03:07:25.219Z,35.20
2023-05-15T03:07:48.003Z,35.30
2023-05-15T03:08:10.699Z,35.40
2023-05-15T03:08:33.469Z,35.40
2023-05-15T03:08:56.303Z,35.50
2023-05-15T03:09:19.050Z,35.60
2023-05-15T03:09:41.915Z,35.70
2023-05-15T03:10:06.149Z,35.60
2023-05-15T03:10:28.997Z,35.20
2023-05-15T03:10:52.412Z,34.90
2023-05-15T03:11:15.400Z,35.10
2023-05-15T03:11:38.107Z,35.20
2023-05-15T03:12:00.889Z,35.40
2023-05-15T03:12:23.680Z,35.40
2023-05-15T03:12:46.405Z,35.40
2023-05-15T03:13:11.261Z,35.30
2023-05-15T03:13:34.020Z,35.40
2023-05-15T03:13:57.092Z,35.40
2023-05-15T03:14:20.110Z,35.40
2023-05-15T03:14:42.885Z,35.30
2023-05-15T03:15:07.158Z,35.30
2023-05-15T03:15:29.976Z,35.50
2023-05-15T03:15:53.315Z,35.50
2023-05-15T03:16:16.236Z,35.60
2023-05-15T03:16:39.195Z,35.60
2023-05-15T03:17:02.242Z,35.60
2023-05-15T03:17:25.225Z,35.50
2023-05-15T03:17:48.166Z,35.40
2023-05-15T03:18:11.125Z,35.40
2023-05-15T03:18:35.113Z,35.40
2023-05-15T03:18:57.895Z,35.50
2023-05-15T03:19:20.700Z,35.70
2023-05-15T03:19:43.519Z,35.80
2023-05-15T03:20:09.193Z,35.90
2023-05-15T03:20:31.919Z,35.90
2023-05-15T03:20:55.218Z,35.80
2023-05-15T03:21:18.557Z,35.90
2023-05-15T03:21:41.274Z,36.00
2023-05-15T03:22:04.391Z,35.70
2023-05-15T03:22:27.309Z,35.60
2023-05-15T03:22:50.182Z,35.80
2023-05-15T03:23:12.857Z,35.60
2023-05-15T03:23:37.769Z,35.40
2023-05-15T03:24:00.878Z,35.10
2023-05-15T03:24:23.552Z,34.80
2023-05-15T03:24:46.336Z,34.60
2023-05-15T03:25:10.721Z,34.50
2023-05-15T03:25:33.502Z,35.10
2023-05-15T03:25:56.319Z,35.30
2023-05-15T03:26:19.040Z,35.40
2023-05-15T03:26:42.735Z,35.20
2023-05-15T03:27:06.415Z,35.10
2023-05-15T03:27:29.183Z,35.10
2023-05-15T03:27:52.095Z,35.10
2023-05-15T03:28:16.499Z,35.00
2023-05-15T03:28:41.046Z,34.90
2023-05-15T03:29:04.901Z,34.90
2023-05-15T03:29:27.834Z,34.70
2023-05-15T03:29:51.257Z,34.60
2023-05-15T03:30:14.256Z,34.70
2023-05-15T03:30:37.002Z,34.80
2023-05-15T03:30:59.825Z,34.80
2023-05-15T03:31:22.717Z,35.00
2023-05-15T03:31:45.571Z,35.00
2023-05-15T03:32:11.276Z,35.10
2023-05-15T03:32:34.010Z,35.10
2023-05-15T03:32:57.806Z,35.30
2023-05-15T03:33:20.756Z,35.40
2023-05-15T03:33:45.783Z,35.50
2023-05-15T03:34:08.552Z,35.60
2023-05-15T03:34:31.518Z,35.70
2023-05-15T03:34:54.359Z,35.70
2023-05-15T03:35:17.145Z,35.70
2023-05-15T03:35:39.944Z,35.70
2023-05-15T03:36:02.734Z,36.30
2023-05-15T03:36:25.460Z,35.70
2023-05-15T03:36:48.265Z,35.80
2023-05-15T03:37:11.074Z,35.90
2023-05-15T03:37:33.842Z,35.90
2023-05-15T03:37:56.650Z,36.00
2023-05-15T03:38:20.092Z,36.00
2023-05-15T03:38:44.650Z,36.10
2023-05-15T03:39:07.696Z,36.10
2023-05-15T03:39:30.423Z,36.10
2023-05-15T03:39:53.210Z,36.30
2023-05-15T03:40:16.181Z,36.30
2023-05-15T03:40:39.885Z,36.20
2023-05-15T03:41:02.917Z,36.20
2023-05-15T03:41:27.945Z,36.10
2023-05-15T03:41:50.858Z,36.20
2023-05-15T03:42:13.669Z,36.10
2023-05-15T03:42:36.490Z,36.10
2023-05-15T03:42:59.302Z,36.10
2023-05-15T03:43:24.021Z,36.00
2023-05-15T03:43:46.770Z,35.90
2023-05-15T03:44:09.608Z,35.80
2023-05-15T03:44:33.403Z,35.80
2023-05-15T03:44:56.878Z,35.80
2023-05-15T03:45:20.268Z,36.00
2023-05-15T03:45:43.134Z,36.00
2023-05-15T03:46:06.023Z,36.00
2023-05-15T03:46:28.938Z,36.00
2023-05-15T03:46:51.665Z,36.10
2023-05-15T03:47:14.399Z,36.00
2023-05-15T03:47:37.214Z,36.00
2023-05-15T03:47:59.952Z,36.00
2023-05-15T03:48:22.714Z,36.10
2023-05-15T03:48:45.540Z,36.20
2023-05-15T03:49:08.339Z,36.20
2023-05-15T03:49:31.127Z,36.20
2023-05-15T03:49:53.972Z,36.10
2023-05-15T03:50:16.904Z,36.10
2023-05-15T03:50:40.480Z,36.20
2023-05-15T03:51:03.456Z,36.20
2023-05-15T03:51:26.261Z,36.10
2023-05-15T03:51:49.140Z,36.00
2023-05-15T03:52:11.962Z,36.00
2023-05-15T03:52:34.793Z,36.00
2023-05-15T03:52:57.522Z,36.10
2023-05-15T03:53:20.413Z,36.10
2023-05-15T03:53:43.164Z,36.20
2023-05-15T03:54:06.409Z,36.30
2023-05-15T03:54:29.385Z,36.20
2023-05-15T03:54:52.179Z,36.30
2023-05-15T03:55:15.031Z,36.30
2023-05-15T03:55:37.822Z,36.30
2023-05-15T03:56:00.618Z,36.50
2023-05-15T03:56:23.347Z,36.50
2023-05-15T03:56:46.187Z,36.50
2023-05-15T03:57:09.056Z,36.60
2023-05-15T03:57:33.647Z,36.70
2023-05-15T03:57:57.116Z,36.70
2023-05-15T03:58:19.840Z,36.50
2023-05-15T03:58:44.101Z,36.40
2023-05-15T03:59:07.942Z,36.30
2023-05-15T03:59:31.383Z,36.30
2023-05-15T03:59:54.168Z,36.20
2023-05-15T04:00:19.059Z,36.20
2023-05-15T04:00:42.124Z,36.40
2023-05-15T04:01:04.969Z,36.20
2023-05-15T04:01:27.818Z,36.30
2023-05-15T04:02:03.618Z,36.20
2023-05-15T04:02:28.511Z,36.30
2023-05-15T04:02:51.504Z,36.20
2023-05-15T04:03:14.671Z,36.70
2023-05-15T04:03:37.839Z,36.00
2023-05-15T04:04:00.819Z,36.10
2023-05-15T04:04:23.678Z,36.20
2023-05-15T04:04:46.529Z,36.00
2023-05-15T04:05:09.843Z,36.10
2023-05-15T04:05:32.676Z,35.80
2023-05-15T04:05:56.051Z,35.70
2023-05-15T04:06:18.998Z,35.70
2023-05-15T04:06:41.713Z,35.60
2023-05-15T04:07:04.877Z,35.70
2023-05-15T04:07:27.739Z,35.60
2023-05-15T04:07:50.644Z,35.70
2023-05-15T04:08:13.457Z,35.80
2023-05-15T04:08:36.323Z,35.80
2023-05-15T04:08:59.189Z,35.70
2023-05-15T04:09:21.952Z,35.50
2023-05-15T04:09:44.769Z,35.40
2023-05-15T04:10:09.263Z,35.60
2023-05-15T04:10:32.811Z,35.60
2023-05-15T04:10:55.782Z,35.70
2023-05-15T04:11:18.812Z,35.40
2023-05-15T04:11:41.611Z,35.30
2023-05-15T04:12:04.975Z,35.20
2023-05-15T04:12:29.759Z,35.00
2023-05-15T04:12:52.653Z,34.80
2023-05-15T04:13:15.609Z,34.50
2023-05-15T04:13:38.404Z,34.50
2023-05-15T04:14:02.722Z,34.60
2023-05-15T04:14:25.692Z,34.60
2023-05-15T04:14:48.549Z,34.60
2023-05-15T04:15:15.194Z,34.70
2023-05-15T04:15:38.712Z,34.50
2023-05-15T04:16:01.524Z,34.50
2023-05-15T04:16:24.407Z,34.60
2023-05-15T04:16:47.500Z,33.10
2023-05-15T04:17:10.336Z,32.60
2023-05-15T04:17:33.189Z,32.90
2023-05-15T04:17:56.094Z,33.30
2023-05-15T04:18:18.917Z,33.20
2023-05-15T04:18:43.342Z,32.70
2023-05-15T04:19:06.553Z,32.60
2023-05-15T04:19:29.795Z,32.50
2023-05-15T04:19:55.473Z,32.30
2023-05-15T04:20:19.303Z,32.20
2023-05-15T04:20:42.064Z,32.80
2023-05-15T04:21:04.840Z,32.90
2023-05-15T04:21:27.625Z,33.40
2023-05-15T04:21:50.580Z,33.30
2023-05-15T04:22:13.930Z,33.40
2023-05-15T04:22:36.583Z,33.20
2023-05-15T04:22:59.413Z,32.20
2023-05-15T04:23:22.155Z,32.10
2023-05-15T04:23:44.935Z,32.30
2023-05-15T04:24:08.111Z,31.30
2023-05-15T04:24:30.891Z,31.40
2023-05-15T04:24:53.932Z,30.70
2023-05-15T04:25:16.635Z,30.10
2023-05-15T04:25:40.056Z,29.60
2023-05-15T04:26:02.773Z,29.50
2023-05-15T04:26:25.669Z,30.00
2023-05-15T04:26:48.744Z,29.90
2023-05-15T04:27:11.646Z,30.20
2023-05-15T04:27:34.649Z,30.00
2023-05-15T04:27:57.521Z,29.60
2023-05-15T04:28:23.404Z,29.80
2023-05-15T04:28:56.240Z,30.20
2023-05-15T04:29:27.617Z,29.90
2023-05-15T04:29:50.631Z,30.90
2023-05-15T04:30:13.708Z,30.80
2023-05-15T04:30:37.016Z,31.10
2023-05-15T04:31:01.602Z,31.60
2023-05-15T04:31:24.561Z,31.40
2023-05-15T04:31:47.489Z,31.90
2023-05-15T04:32:10.584Z,31.80
2023-05-15T04:32:36.688Z,31.40
2023-05-15T04:32:59.683Z,31.10
2023-05-15T04:33:22.518Z,30.80
2023-05-15T04:33:45.421Z,31.50
2023-05-15T04:34:08.163Z,31.40
2023-05-15T04:34:31.085Z,31.40
2023-05-15T04:34:53.918Z,31.10
2023-05-15T04:35:17.019Z,30.50
2023-05-15T04:35:40.760Z,30.30
2023-05-15T04:36:06.338Z,30.00
2023-05-15T04:36:29.202Z,29.90
2023-05-15T04:36:52.013Z,30.10
2023-05-15T04:37:15.644Z,30.60
2023-05-15T04:37:38.665Z,30.30
2023-05-15T04:38:02.297Z,29.80
2023-05-15T04:38:25.141Z,29.40
2023-05-15T04:38:47.993Z,28.10
2023-05-15T04:39:10.895Z,28.70
2023-05-15T04:39:33.774Z,29.10
2023-05-15T04:39:56.607Z,29.40
2023-05-15T04:40:19.422Z,29.00
2023-05-15T04:40:42.237Z,28.50
2023-05-15T04:41:05.062Z,29.20
2023-05-15T04:41:27.983Z,29.20
2023-05-15T04:41:50.801Z,28.20
2023-05-15T04:42:13.604Z,28.00
2023-05-15T04:42:38.580Z,27.40
2023-05-15T04:43:04.218Z,27.20
2023-05-15T04:43:27.040Z,27.60
2023-05-15T04:43:49.950Z,26.00
2023-05-15T04:44:12.731Z,25.10
2023-05-15T04:44:36.975Z,22.10
2023-05-15T04:45:00.446Z,21.00
2023-05-15T04:45:25.042Z,16.70
2023-05-15T04:45:48.093Z,16.30
2023-05-15T04:46:10.925Z,10.20
2023-05-15T04:46:35.237Z,6.60
2023-05-15T04:46:58.116Z,4.90
2023-05-15T04:47:21.010Z,1.00
2023-05-15T04:47:43.904Z,1.00
2023-05-15T04:48:07.145Z,1.00
2023-05-15T04:48:30.018Z,1.00
2023-05-15T04:48:52.728Z,1.00
2023-05-15T04:49:18.398Z,1.00
2023-05-15T04:49:41.771Z,1.00
2023-05-15T04:50:04.957Z,1.00
2023-05-15T04:50:27.735Z,1.00
2023-05-15T04:50:51.394Z,1.00
2023-05-15T04:51:14.218Z,1.00
2023-05-15T04:51:37.055Z,1.00
2023-05-15T04:51:59.795Z,1.00
2023-05-15T04:52:22.610Z,1.00
2023-05-15T04:52:45.990Z,1.00
2023-05-15T04:53:08.702Z,1.00
2023-05-15T04:53:31.501Z,1.00
2023-05-15T04:53:54.433Z,1.00
2023-05-15T04:54:17.164Z,1.00
2023-05-15T04:54:40.090Z,1.00
2023-05-15T04:55:02.979Z,1.00
2023-05-15T04:55:25.956Z,1.00
2023-05-15T04:55:51.546Z,1.00
2023-05-15T04:56:14.374Z,1.00
2023-05-15T04:56:37.277Z,1.00
2023-05-15T04:57:00.003Z,1.00
2023-05-15T04:57:26.034Z,1.00
2023-05-15T04:57:48.810Z,1.00
2023-05-15T04:58:11.670Z,1.00
2023-05-15T04:58:34.443Z,1.00
2023-05-15T04:58:57.289Z,1.00
2023-05-15T04:59:20.195Z,1.00
2023-05-15T04:59:44.674Z,1.00
2023-05-15T05:00:12.357Z,1.00
2023-05-15T05:00:35.317Z,1.00
2023-05-15T05:00:58.128Z,1.00
2023-05-15T05:01:20.952Z,1.00
2023-05-15T05:01:43.786Z,1.00
2023-05-15T05:02:06.747Z,99.90
2023-05-15T05:02:29.807Z,99.90
2023-05-15T05:02:54.985Z,99.90
2023-05-15T05:03:17.768Z,99.90
2023-05-15T05:03:40.718Z,99.90
2023-05-15T05:04:03.590Z,99.90
2023-05-15T05:04:26.475Z,99.90
2023-05-15T05:04:49.309Z,70.90
2023-05-15T05:05:14.862Z,42.60
2023-05-15T05:05:37.783Z,1.00
2023-05-15T05:06:01.108Z,10.70
2023-05-15T05:06:24.184Z,46.40
2023-05-15T05:06:47.022Z,99.90